Falfurrias, TX

6:08 AM CST on November 13, 2019 (GMT -0600)
Falfurrias

Weather History for KBKS - September, 2019

Change the Weather History Date:

Saturday, September 28, 2019

  Actual Average (WUND) Record (WUND)
Temperature  
Mean Temperature 86 °F -  
Max Temperature 96 °F - - (-1)
Min Temperature 77 °F - - (-1)
Cooling Degree Days 21    
Growing Degree Days 36 (Base 50)    
Moisture  
Dew Point 77 °F    
Average Humidity 80    
Maximum Humidity 91    
Minimum Humidity 49    
Precipitation  
Precipitation 0.56 in - - ()
Sea Level Pressure  
Sea Level Pressure 29.84 in    
Wind  
Wind Speed 6 mph ()    
Max Wind Speed 16 mph    
Max Gust Speed 28 mph    
Visibility 9.5 miles    
Events      
Averages and records for this station are not official NWS values.
T = Trace of Precipitation, MM = Missing Value Source: Averaged Metar Reports

Daily Weather History Graph

Daily Weather History Graph

Search for Another Location

Airport or City:

Astronomy

Sep. 28, 2019 Rise Set
Actual Time 7:23 AM CDT 7:22 PM CDT
Civil Twilight 7:00 AM CDT 7:45 PM CDT
Nautical Twilight 6:33 AM CDT 8:12 PM CDT
Astronomical Twilight 6:06 AM CDT 8:39 PM CDT
Moon 7:09 AM CDT (9/28) 7:45 PM CDT (9/28)
Length of Visible Light 12h 45m
Length of Day
11h 58m
Waning Crescent, 0% of the Moon is Illuminated
Sep 28
Waning Crescent
Sep 28
New
Oct 5
First Quarter
Oct 13
Full
Oct 21
Last Quarter

Hourly Weather History & Observations

Time (CDT) Temp. Heat Index Dew Point Humidity Pressure Visibility Wind Dir Wind Speed Gust Speed Precip Events Conditions
12:15 AM 81.9 °F 88.9 °F 75.9 °F 82% 29.81 in 10.0 mi ESE 4.6 mph - N/A   Clear
12:35 AM 81.5 °F 88.3 °F 75.9 °F 83% 29.81 in 10.0 mi SE 4.6 mph - N/A   Clear
12:55 AM 81.0 °F 87.1 °F 75.7 °F 84% 29.80 in 10.0 mi ESE 5.8 mph - N/A   Clear
1:15 AM 81.0 °F 87.3 °F 76.1 °F 85% 29.80 in 10.0 mi SE 4.6 mph - N/A   Clear
1:35 AM 80.6 °F 86.6 °F 76.1 °F 86% 29.80 in 10.0 mi ESE 5.8 mph - N/A   Clear
1:55 AM 80.6 °F 86.6 °F 76.1 °F 86% 29.80 in 10.0 mi SE 5.8 mph - N/A   Clear
2:15 AM 80.8 °F 87.1 °F 76.1 °F 86% 29.80 in 10.0 mi SE 5.8 mph - N/A   Clear
2:35 AM 80.8 °F 87.1 °F 76.1 °F 86% 29.81 in 10.0 mi SE 5.8 mph - N/A   Clear
2:55 AM 80.6 °F 86.6 °F 76.1 °F 86% 29.80 in 10.0 mi SE 6.9 mph - N/A   Clear
3:15 AM 80.6 °F 86.6 °F 76.1 °F 86% 29.80 in 10.0 mi SE 6.9 mph - N/A   Clear
3:35 AM 80.2 °F 85.8 °F 76.1 °F 87% 29.79 in 10.0 mi SE 5.8 mph - N/A   Clear
3:55 AM 80.1 °F 85.5 °F 76.1 °F 88% 29.79 in 10.0 mi SE 4.6 mph - N/A   Clear
4:15 AM 79.9 °F - 75.9 °F 88% 29.79 in 10.0 mi SE 4.6 mph - N/A   Clear
4:55 AM 79.9 °F - 76.1 °F 88% 29.78 in 10.0 mi SE 4.6 mph - N/A   Clear
5:15 AM 79.7 °F - 75.7 °F 88% 29.78 in 10.0 mi ESE 3.5 mph - N/A   Clear
5:35 AM 79.0 °F - 75.4 °F 89% 29.79 in 10.0 mi Calm Calm - N/A   Clear
5:55 AM 78.3 °F - 75.0 °F 90% 29.79 in 10.0 mi Calm Calm - N/A   Clear
6:15 AM 78.1 °F - 75.2 °F 91% 29.79 in 10.0 mi NE 3.5 mph - N/A   Scattered Clouds
6:35 AM 78.1 °F - 75.2 °F 91% 29.80 in 10.0 mi Calm Calm - N/A   Mostly Cloudy
6:55 AM 77.9 °F - 75.0 °F 91% 29.80 in 10.0 mi ENE 3.5 mph - N/A   Mostly Cloudy
7:15 AM 77.2 °F - 74.3 °F 91% 29.80 in 7.0 mi East 3.5 mph - N/A   Scattered Clouds
7:35 AM 77.4 °F - 74.7 °F 91% 29.81 in 7.0 mi East 4.6 mph - N/A   Clear
7:55 AM 78.1 °F - 75.2 °F 91% 29.82 in 7.0 mi Calm Calm - N/A   Clear
8:15 AM 79.5 °F - 76.3 °F 90% 29.83 in 10.0 mi ESE 3.5 mph - N/A   Scattered Clouds
8:35 AM 81.3 °F 88.0 °F 76.1 °F 84% 29.84 in 10.0 mi SE 6.9 mph - N/A   Scattered Clouds
8:55 AM 83.5 °F 92.2 °F 76.3 °F 79% 29.84 in 10.0 mi SE 5.8 mph - N/A   Clear
9:15 AM 86.0 °F 96.4 °F 76.3 °F 73% 29.85 in 10.0 mi SE 9.2 mph - N/A   Clear
9:35 AM 87.3 °F 98.2 °F 76.5 °F 70% 29.86 in 10.0 mi SE 12.7 mph - N/A   Clear
9:55 AM 88.2 °F 100.1 °F 76.6 °F 69% 29.86 in 10.0 mi SE 13.8 mph 19.6 mph N/A   Scattered Clouds
10:15 AM 88.0 °F 99.6 °F 76.6 °F 69% 29.87 in 10.0 mi SSE 12.7 mph - N/A   Scattered Clouds
10:35 AM 90.0 °F 102.5 °F 76.8 °F 65% 29.88 in 10.0 mi SE 13.8 mph 23.0 mph N/A   Scattered Clouds
10:55 AM 90.9 °F 102.4 °F 75.9 °F 61% 29.88 in 10.0 mi SE 10.4 mph 16.1 mph N/A   Scattered Clouds
11:15 AM 91.9 °F 104.5 °F 76.3 °F 60% 29.88 in 10.0 mi SE 11.5 mph - N/A   Scattered Clouds
11:35 AM 92.3 °F 104.8 °F 75.9 °F 59% 29.88 in 10.0 mi SSE 11.5 mph - N/A   Scattered Clouds
11:55 AM 92.8 °F 102.8 °F 73.9 °F 54% 29.88 in 10.0 mi SE 8.1 mph - N/A   Scattered Clouds
12:15 PM 93.9 °F 104.0 °F 73.8 °F 52% 29.88 in 10.0 mi SE 8.1 mph 18.4 mph N/A   Scattered Clouds
12:35 PM 95.5 °F 105.8 °F 73.8 °F 49% 29.86 in 10.0 mi SSE 6.9 mph - N/A   Scattered Clouds
12:55 PM 95.0 °F 106.7 °F 74.7 °F 52% 29.86 in 10.0 mi East 6.9 mph - N/A   Mostly Cloudy
1:15 PM 88.7 °F 98.7 °F 75.2 °F 64% 29.88 in 10.0 mi East 16.1 mph 27.6 mph N/A   Overcast
1:35 PM 88.9 °F 103.3 °F 78.3 °F 71% 29.85 in 10.0 mi East 11.5 mph 16.1 mph N/A   Mostly Cloudy
1:55 PM 86.2 °F 97.8 °F 77.5 °F 75% 29.85 in 10.0 mi East 9.2 mph - N/A   Clear
2:15 PM 86.9 °F 98.3 °F 77.0 °F 72% 29.85 in 10.0 mi East 9.2 mph - N/A   Clear
2:35 PM 88.0 °F 100.2 °F 77.0 °F 70% 29.84 in 10.0 mi East 11.5 mph - N/A   Clear
2:55 PM 92.3 °F 107.6 °F 78.1 °F 63% 29.83 in 10.0 mi ESE 10.4 mph - N/A   Clear
3:15 PM 88.2 °F 101.2 °F 77.9 °F 71% 29.84 in 10.0 mi East 6.9 mph - N/A   Mostly Cloudy
3:35 PM 87.8 °F 100.2 °F 77.5 °F 71% 29.84 in 10.0 mi SSW 8.1 mph - N/A   Mostly Cloudy
3:55 PM 83.1 °F 93.6 °F 78.6 °F 86% 29.84 in 1.0 mi ESE 5.8 mph - 0.20 in   Overcast
4:15 PM 85.6 °F 101.2 °F 80.8 °F 85% 29.82 in 10.0 mi East 5.8 mph - N/A   Scattered Clouds
4:35 PM 86.7 °F 102.0 °F 79.9 °F 80% 29.83 in 7.0 mi East 12.7 mph - N/A   Scattered Clouds
4:55 PM 83.3 °F 94.9 °F 79.5 °F 88% 29.84 in 0.8 mi SSE 9.2 mph 12.7 mph 0.23 in   Overcast
5:15 PM 82.4 °F 92.4 °F 79.0 °F 89% 29.84 in 5.0 mi East 3.5 mph - 0.13 in   Overcast
5:35 PM 82.9 °F 94.5 °F 79.7 °F 90% 29.82 in 10.0 mi East 3.5 mph - 0.13 in   Scattered Clouds
5:55 PM 84.6 °F 98.6 °F 80.2 °F 87% 29.82 in 10.0 mi East 8.1 mph - 0.13 in   Clear
6:15 PM 86.0 °F 100.8 °F 80.1 °F 82% 29.82 in 10.0 mi ESE 10.4 mph 17.3 mph N/A   Clear
6:35 PM 86.7 °F 101.5 °F 79.7 °F 79% 29.83 in 10.0 mi ESE 8.1 mph - N/A   Clear
6:55 PM 86.5 °F 100.4 °F 78.8 °F 78% 29.83 in 10.0 mi ESE 9.2 mph - N/A   Clear
7:15 PM 86.0 °F 98.8 °F 78.3 °F 78% 29.84 in 10.0 mi ESE 8.1 mph - N/A   Clear
7:35 PM 85.3 °F 97.6 °F 78.4 °F 80% 29.83 in 10.0 mi ESE 8.1 mph - N/A   Clear
7:55 PM 85.1 °F 97.6 °F 78.8 °F 81% 29.83 in 10.0 mi ESE 9.2 mph - N/A   Clear
8:15 PM 84.6 °F 96.4 °F 78.6 °F 82% 29.84 in 10.0 mi ESE 9.2 mph - N/A   Clear
8:35 PM 84.6 °F 96.8 °F 78.8 °F 83% 29.85 in 10.0 mi SE 9.2 mph - N/A   Clear
8:55 PM 84.4 °F 96.3 °F 78.8 °F 83% 29.85 in 10.0 mi SE 9.2 mph - N/A   Clear
9:15 PM 84.2 °F 96.1 °F 78.8 °F 84% 29.86 in 10.0 mi ESE 9.2 mph - N/A   Clear
9:35 PM 84.2 °F 96.1 °F 78.8 °F 84% 29.87 in 10.0 mi ESE 9.2 mph - N/A   Clear
9:55 PM 84.2 °F 96.1 °F 78.8 °F 84% 29.87 in 10.0 mi ESE 9.2 mph - N/A   Clear
10:15 PM 83.8 °F 95.5 °F 78.8 °F 85% 29.88 in 10.0 mi ESE 8.1 mph - N/A   Clear
10:35 PM 83.7 °F 94.5 °F 78.4 °F 84% 29.88 in 10.0 mi ESE 8.1 mph - N/A   Clear
10:55 PM 83.5 °F 94.0 °F 78.3 °F 84% 29.89 in 10.0 mi SE 9.2 mph - N/A   Clear
11:15 PM 83.3 °F 93.8 °F 78.3 °F 85% 29.90 in 10.0 mi ESE 6.9 mph - N/A   Clear
11:35 PM 82.8 °F 92.6 °F 78.3 °F 86% 29.90 in 10.0 mi ESE 6.9 mph - N/A   Clear
11:55 PM 82.6 °F 92.3 °F 78.3 °F 87% 29.91 in 10.0 mi ESE 8.1 mph - N/A   Clear